createdAt,value
2023-05-24T00:00:25.085Z,99475.06
2023-05-24T00:02:52.602Z,99474.20
2023-05-24T00:05:20.113Z,99474.63
2023-05-24T00:07:47.481Z,99472.05
2023-05-24T00:10:14.918Z,99472.74
2023-05-24T00:12:42.288Z,99472.66
2023-05-24T00:15:10.342Z,99473.41
2023-05-24T00:17:41.411Z,99473.33
2023-05-24T00:20:11.642Z,99469.98
2023-05-24T00:22:39.241Z,99470.05
2023-05-24T00:25:07.342Z,99474.34
2023-05-24T00:27:37.076Z,99471.34
2023-05-24T00:30:05.821Z,99474.77
2023-05-24T00:32:33.230Z,99477.14
2023-05-24T00:35:00.793Z,99483.13
2023-05-24T00:37:29.610Z,99483.30
2023-05-24T00:39:57.071Z,99483.64
2023-05-24T00:42:24.479Z,99481.67
2023-05-24T00:44:51.832Z,99480.34
2023-05-24T00:47:19.656Z,99477.52
2023-05-24T00:49:47.075Z,99485.88
2023-05-24T00:52:14.451Z,99484.82
2023-05-24T00:54:42.057Z,99483.63
2023-05-24T00:57:09.510Z,99486.60
2023-05-24T00:59:37.039Z,99483.20
2023-05-24T01:02:05.488Z,99478.80
2023-05-24T01:04:33.305Z,99482.10
2023-05-24T01:07:19.396Z,99479.00
2023-05-24T01:10:02.055Z,99476.92
2023-05-24T01:12:44.971Z,99473.27
2023-05-24T01:15:25.667Z,99473.65
2023-05-24T01:18:29.264Z,99476.51
2023-05-24T01:21:12.132Z,99480.25
2023-05-24T01:23:56.231Z,99481.86
2023-05-24T01:26:40.239Z,99484.25
2023-05-24T01:29:07.589Z,99485.27
2023-05-24T01:31:34.992Z,99490.08
2023-05-24T01:34:02.429Z,99492.16
2023-05-24T01:36:29.785Z,99491.59
2023-05-24T01:38:57.135Z,99497.64
2023-05-24T01:41:40.498Z,99503.79
2023-05-24T01:44:17.615Z,99501.69
2023-05-24T01:46:47.919Z,99501.37
2023-05-24T01:49:21.497Z,99497.23
2023-05-24T01:51:59.607Z,99495.45
2023-05-24T01:54:28.289Z,99490.41
2023-05-24T01:56:56.094Z,99488.41
2023-05-24T01:59:26.979Z,99490.80
2023-05-24T02:01:54.352Z,99489.53
2023-05-24T02:04:21.769Z,99488.02
2023-05-24T02:06:49.243Z,99489.59
2023-05-24T02:09:16.784Z,99488.44
2023-05-24T02:11:44.368Z,99491.54
2023-05-24T02:14:11.768Z,99491.29
2023-05-24T02:16:43.347Z,99491.57
2023-05-24T02:19:10.722Z,99492.20
2023-05-24T02:21:38.192Z,99495.51
2023-05-24T02:24:07.133Z,99501.04
2023-05-24T02:26:34.475Z,99499.73
2023-05-24T02:29:01.846Z,99502.46
2023-05-24T02:31:29.741Z,99500.69
2023-05-24T02:33:57.610Z,99498.34
2023-05-24T02:36:25.020Z,99504.52
2023-05-24T02:38:52.377Z,99506.70
2023-05-24T02:41:20.511Z,99507.88
2023-05-24T02:43:47.930Z,99505.02
2023-05-24T02:46:15.377Z,99507.81
2023-05-24T02:48:42.897Z,99506.08
2023-05-24T02:51:10.279Z,99503.92
2023-05-24T02:53:37.625Z,99501.38
2023-05-24T02:56:05.756Z,99501.10
2023-05-24T02:58:33.192Z,99502.17
2023-05-24T03:01:01.779Z,99503.95
2023-05-24T03:03:30.837Z,99505.81
2023-05-24T03:05:58.617Z,99506.46
2023-05-24T03:08:26.037Z,99506.42
2023-05-24T03:10:54.259Z,99514.21
2023-05-24T03:13:21.606Z,99518.05
2023-05-24T03:15:49.252Z,99521.18
2023-05-24T03:18:16.743Z,99520.86
2023-05-24T03:20:44.893Z,99518.95
2023-05-24T03:23:15.096Z,99520.29
2023-05-24T03:25:43.143Z,99519.52
2023-05-24T03:28:11.168Z,99521.13
2023-05-24T03:30:38.585Z,99521.66
2023-05-24T03:33:05.995Z,99523.64
2023-05-24T03:35:33.504Z,99525.00
2023-05-24T03:38:00.849Z,99524.92
2023-05-24T03:40:32.428Z,99522.88
2023-05-24T03:43:07.042Z,99526.85
2023-05-24T03:45:48.287Z,99527.52
2023-05-24T03:48:15.714Z,99525.59
2023-05-24T03:50:43.542Z,99530.85
2023-05-24T03:53:12.009Z,99530.27
2023-05-24T03:55:39.610Z,99532.70
2023-05-24T03:58:07.086Z,99532.88
2023-05-24T04:00:34.491Z,99535.49
2023-05-24T04:03:02.531Z,99535.84
2023-05-24T04:05:30.156Z,99536.84
2023-05-24T04:07:57.672Z,99531.44
2023-05-24T04:10:25.672Z,99524.75
2023-05-24T04:12:53.165Z,99523.81
2023-05-24T04:15:21.467Z,99522.16
2023-05-24T04:17:54.996Z,99523.25
2023-05-24T04:20:25.478Z,99526.51
2023-05-24T04:22:53.992Z,99525.11
2023-05-24T04:25:21.397Z,99527.64
2023-05-24T04:27:48.918Z,99528.04
2023-05-24T04:30:16.757Z,99530.31
2023-05-24T04:32:47.614Z,99526.70
2023-05-24T04:35:15.690Z,99527.77
2023-05-24T04:37:43.175Z,99526.84
2023-05-24T04:40:12.020Z,99526.91
2023-05-24T04:42:39.697Z,99529.01
2023-05-24T04:45:07.675Z,99532.13
2023-05-24T04:47:35.065Z,99535.55
2023-05-24T04:50:02.499Z,99534.68
2023-05-24T04:52:30.598Z,99533.74
2023-05-24T04:54:58.350Z,99531.96
2023-05-24T04:57:25.725Z,99538.17
2023-05-24T04:59:53.104Z,99538.91
2023-05-24T05:02:21.851Z,99538.80
2023-05-24T05:04:49.248Z,99534.80
2023-05-24T05:07:16.655Z,99537.29
2023-05-24T05:09:43.955Z,99539.84
2023-05-24T05:12:12.294Z,99540.48
2023-05-24T05:14:39.668Z,99542.41
2023-05-24T05:17:07.178Z,99544.10
2023-05-24T05:19:34.676Z,99545.02
2023-05-24T05:22:02.112Z,99546.65
2023-05-24T05:24:29.487Z,99547.15
2023-05-24T05:26:57.382Z,99552.52
2023-05-24T05:29:24.790Z,99551.23
2023-05-24T05:31:52.227Z,99548.81
2023-05-24T05:34:21.195Z,99551.98
2023-05-24T05:36:48.583Z,99552.11
2023-05-24T05:39:15.977Z,99556.95
2023-05-24T05:41:45.997Z,99557.30
2023-05-24T05:44:13.872Z,99562.30
2023-05-24T05:46:44.029Z,99564.07
2023-05-24T05:49:13.297Z,99565.00
2023-05-24T05:51:41.069Z,99568.27
2023-05-24T05:54:15.680Z,99569.31
2023-05-24T05:56:45.919Z,99568.15
2023-05-24T05:59:13.606Z,99573.73
2023-05-24T06:01:41.389Z,99570.36
2023-05-24T06:05:28.048Z,99572.52
2023-05-24T06:07:55.437Z,99572.30
2023-05-24T06:10:22.864Z,99576.84
2023-05-24T06:12:50.168Z,99575.64
2023-05-24T06:15:17.531Z,99579.27
2023-05-24T06:17:48.083Z,99579.02
2023-05-24T06:20:15.938Z,99579.76
2023-05-24T06:22:43.988Z,99580.23
2023-05-24T06:25:14.819Z,99574.80
2023-05-24T06:27:42.162Z,99573.53
2023-05-24T06:30:09.910Z,99572.92
2023-05-24T06:32:37.469Z,99569.30
2023-05-24T06:35:05.619Z,99571.10
2023-05-24T06:37:33.725Z,99572.77
2023-05-24T06:40:01.410Z,99570.21
2023-05-24T06:42:28.869Z,99573.27
2023-05-24T06:44:56.216Z,99575.34
2023-05-24T06:47:23.852Z,99572.76
2023-05-24T06:49:51.342Z,99565.37
2023-05-24T06:52:18.736Z,99566.70
2023-05-24T06:54:46.064Z,99568.72
2023-05-24T06:57:13.471Z,99570.61
2023-05-24T06:59:41.256Z,99567.59
2023-05-24T07:02:09.110Z,99569.27
2023-05-24T07:04:36.685Z,99567.95
2023-05-24T07:07:04.353Z,99564.25
2023-05-24T07:09:31.650Z,99567.24
2023-05-24T07:11:58.979Z,99569.14
2023-05-24T07:14:27.475Z,99572.65
2023-05-24T07:16:59.233Z,99575.23
2023-05-24T07:19:29.550Z,99570.71
2023-05-24T07:21:57.437Z,99573.92
2023-05-24T07:24:24.996Z,99578.71
2023-05-24T07:26:53.779Z,99577.35
2023-05-24T07:29:21.987Z,99575.70
2023-05-24T07:31:49.369Z,99573.46
2023-05-24T07:34:17.105Z,99570.92
2023-05-24T07:36:45.656Z,99575.79
2023-05-24T07:39:15.882Z,99579.05
2023-05-24T07:41:43.269Z,99576.05
2023-05-24T07:44:10.661Z,99571.46
2023-05-24T07:46:38.040Z,99577.25
2023-05-24T07:49:05.519Z,99579.78
2023-05-24T07:51:33.034Z,99576.45
2023-05-24T07:54:00.443Z,99584.46
2023-05-24T07:56:27.827Z,99580.09
2023-05-24T07:58:59.550Z,99582.19
2023-05-24T08:01:26.901Z,99582.94
2023-05-24T08:03:54.443Z,99587.82
2023-05-24T08:06:22.998Z,99583.33
2023-05-24T08:08:50.527Z,99583.55
2023-05-24T08:11:18.337Z,99582.73
2023-05-24T08:13:45.668Z,99582.73
2023-05-24T08:16:13.212Z,99582.91
2023-05-24T08:18:40.594Z,99585.37
2023-05-24T08:21:09.110Z,99588.48
2023-05-24T08:23:36.679Z,99585.08
2023-05-24T08:26:04.284Z,99585.86
2023-05-24T08:28:31.768Z,99581.77
2023-05-24T08:30:59.518Z,99582.04
2023-05-24T08:33:26.996Z,99573.40
2023-05-24T08:35:54.364Z,99571.80
2023-05-24T08:38:21.740Z,99571.98
2023-05-24T08:40:49.221Z,99571.04
2023-05-24T08:43:16.603Z,99568.08
2023-05-24T08:45:44.436Z,99566.33
2023-05-24T08:48:14.062Z,99566.59
2023-05-24T08:50:41.461Z,99567.08
2023-05-24T08:53:10.248Z,99558.99
2023-05-24T08:55:37.616Z,99557.55
2023-05-24T08:58:05.147Z,99554.98
2023-05-24T09:00:32.482Z,99558.69
2023-05-24T09:02:59.912Z,99569.23
2023-05-24T09:05:27.375Z,99568.30
2023-05-24T09:07:54.786Z,99567.75
2023-05-24T09:10:22.191Z,99571.20
2023-05-24T09:12:52.862Z,99567.34
2023-05-24T09:15:20.275Z,99570.23
2023-05-24T09:17:47.826Z,99566.73
2023-05-24T09:20:15.576Z,99568.29
2023-05-24T09:22:44.230Z,99571.83
2023-05-24T09:25:13.604Z,99567.30
2023-05-24T09:27:41.647Z,99564.27
2023-05-24T09:30:10.863Z,99570.81
2023-05-24T09:32:38.663Z,99570.36
2023-05-24T09:35:08.464Z,99573.21
2023-05-24T09:37:36.759Z,99572.42
2023-05-24T09:40:07.128Z,99576.27
2023-05-24T09:42:34.752Z,99574.27
2023-05-24T09:45:09.617Z,99580.46
2023-05-24T09:47:38.120Z,99579.60
2023-05-24T09:50:15.459Z,99582.08
2023-05-24T09:52:43.009Z,99579.55
2023-05-24T09:55:20.247Z,99583.59
2023-05-24T09:58:04.130Z,99578.26
2023-05-24T10:00:43.904Z,99583.27
2023-05-24T10:03:14.291Z,99578.75
2023-05-24T10:05:45.514Z,99575.22
2023-05-24T10:08:14.813Z,99575.96
2023-05-24T10:10:42.548Z,99576.95
2023-05-24T10:13:16.914Z,99576.02
2023-05-24T10:15:45.159Z,99579.73
2023-05-24T10:20:00.238Z,99571.77
2023-05-24T10:22:27.333Z,99570.86
2023-05-24T10:24:58.843Z,99579.83
2023-05-24T10:27:29.910Z,99577.15
2023-05-24T10:30:40.925Z,99587.90
2023-05-24T10:33:07.992Z,99588.73
2023-05-24T10:35:37.500Z,99588.91
2023-05-24T10:38:07.548Z,99588.83
2023-05-24T10:40:34.247Z,99584.67
2023-05-24T10:43:06.012Z,99583.10
2023-05-24T10:45:36.191Z,99584.11
2023-05-24T10:48:12.309Z,99582.33
2023-05-24T10:50:39.642Z,99584.93
2023-05-24T10:53:21.977Z,99585.24
2023-05-24T10:55:59.185Z,99585.05
2023-05-24T10:58:48.252Z,99581.05
2023-05-24T11:01:28.512Z,99585.05
2023-05-24T11:04:27.474Z,99584.63
2023-05-24T11:06:57.610Z,99586.02
2023-05-24T11:09:26.890Z,99582.52
2023-05-24T11:11:59.827Z,99586.06
2023-05-24T11:14:28.355Z,99582.95
2023-05-24T11:16:55.538Z,99585.59
2023-05-24T11:19:37.648Z,99580.16
2023-05-24T11:22:08.424Z,99578.35
2023-05-24T11:24:35.876Z,99575.93
2023-05-24T11:27:03.358Z,99571.20
2023-05-24T11:29:30.007Z,99568.14
2023-05-24T11:32:08.536Z,99566.76
2023-05-24T11:34:35.823Z,99570.06
2023-05-24T11:37:02.578Z,99564.64
2023-05-24T11:39:31.379Z,99561.25
2023-05-24T11:41:58.616Z,99562.38
2023-05-24T11:44:31.017Z,99561.98
2023-05-24T11:47:07.197Z,99552.11
2023-05-24T11:49:34.197Z,99554.75
2023-05-24T11:52:01.028Z,99552.58
2023-05-24T11:54:27.903Z,99550.85
2023-05-24T11:56:54.808Z,99551.91
2023-05-24T11:59:25.838Z,99547.16
2023-05-24T12:02:02.099Z,99542.36
2023-05-24T12:04:29.286Z,99539.73
2023-05-24T12:06:56.260Z,99537.42
2023-05-24T12:09:23.135Z,99534.94
2023-05-24T12:11:50.885Z,99539.95
2023-05-24T12:14:27.964Z,99536.30
2023-05-24T12:16:58.110Z,99531.40
2023-05-24T12:21:56.802Z,99525.51
2023-05-24T12:24:24.934Z,99525.66
2023-05-24T12:26:51.594Z,99524.58
2023-05-24T12:29:19.462Z,99521.84
2023-05-24T12:31:49.499Z,99520.22
2023-05-24T12:34:19.505Z,99519.23
2023-05-24T12:36:47.233Z,99522.31
2023-05-24T12:39:30.497Z,99523.64
2023-05-24T12:41:58.107Z,99523.47
2023-05-24T12:44:25.706Z,99520.51
2023-05-24T12:46:53.336Z,99522.48
2023-05-24T12:49:20.111Z,99524.63
2023-05-24T12:51:49.096Z,99527.32
2023-05-24T12:54:23.210Z,99528.35
2023-05-24T12:56:51.767Z,99530.02
2023-05-24T12:59:20.474Z,99531.08
2023-05-24T13:01:51.109Z,99529.91
2023-05-24T13:04:18.149Z,99526.94
2023-05-24T13:06:45.230Z,99530.48
2023-05-24T13:09:13.445Z,99533.86
2023-05-24T13:11:39.995Z,99533.78
2023-05-24T13:14:07.057Z,99531.92
2023-05-24T13:16:34.977Z,99529.70
2023-05-24T13:19:01.820Z,99528.10
2023-05-24T13:21:29.081Z,99528.89
2023-05-24T13:23:55.753Z,99525.58
2023-05-24T13:26:23.778Z,99524.17
2023-05-24T13:29:21.897Z,99524.05
2023-05-24T13:31:37.157Z,99525.41
2023-05-24T13:34:04.658Z,99524.45
2023-05-24T13:36:31.354Z,99526.40
2023-05-24T13:39:13.206Z,99526.58
2023-05-24T13:41:42.484Z,99527.77
2023-05-24T13:44:09.493Z,99528.79
2023-05-24T13:46:36.531Z,99527.17
2023-05-24T13:49:03.796Z,99527.79
2023-05-24T13:51:31.331Z,99533.17
2023-05-24T13:53:58.407Z,99532.79
2023-05-24T13:56:26.917Z,99533.45
2023-05-24T13:58:53.804Z,99532.38
2023-05-24T14:01:20.601Z,99533.05
2023-05-24T14:03:48.253Z,99533.53
2023-05-24T14:06:15.102Z,99534.51
2023-05-24T14:08:41.943Z,99538.70
2023-05-24T14:11:08.619Z,99536.52
2023-05-24T14:16:06.832Z,99535.63
2023-05-24T14:18:34.062Z,99538.35
2023-05-24T14:21:01.608Z,99537.20
2023-05-24T14:23:32.468Z,99537.88
2023-05-24T14:25:59.467Z,99532.39
2023-05-24T14:28:26.360Z,99531.66
2023-05-24T14:30:52.863Z,99530.80
2023-05-24T14:33:21.138Z,99528.61
2023-05-24T14:35:48.492Z,99527.38
2023-05-24T14:38:15.253Z,99530.09
2023-05-24T14:40:42.106Z,99531.55
2023-05-24T14:43:09.996Z,99533.27
2023-05-24T14:45:37.945Z,99527.39
2023-05-24T14:48:04.938Z,99525.20
2023-05-24T14:50:31.853Z,99524.05
2023-05-24T14:52:59.969Z,99522.64
2023-05-24T14:55:27.083Z,99517.14
2023-05-24T14:57:53.553Z,99519.21
2023-05-24T15:00:23.132Z,99515.45
2023-05-24T15:02:51.120Z,99514.47
2023-05-24T15:05:17.924Z,99515.73
2023-05-24T15:07:45.073Z,99518.54
2023-05-24T15:10:11.750Z,99520.20
2023-05-24T15:12:39.673Z,99517.10
2023-05-24T15:15:07.242Z,99516.33
2023-05-24T15:17:34.176Z,99513.20
2023-05-24T15:20:01.068Z,99513.11
2023-05-24T15:22:27.550Z,99510.04
2023-05-24T15:24:54.123Z,99504.23
2023-05-24T15:27:20.929Z,99502.28
2023-05-24T15:29:47.593Z,99502.92
2023-05-24T15:32:14.092Z,99501.39
2023-05-24T15:34:40.978Z,99500.38
2023-05-24T15:37:07.660Z,99501.75
2023-05-24T15:39:36.323Z,99508.04
2023-05-24T15:42:03.248Z,99508.89
2023-05-24T15:44:30.371Z,99514.45
2023-05-24T15:46:57.452Z,99520.05
2023-05-24T15:49:25.030Z,99525.40
2023-05-24T15:54:21.530Z,99534.77
2023-05-24T15:56:49.329Z,99535.52
2023-05-24T15:59:15.949Z,99542.61
2023-05-24T16:01:42.538Z,99544.05
2023-05-24T16:04:09.169Z,99540.63
2023-05-24T16:06:36.281Z,99545.86
2023-05-24T16:09:04.751Z,99554.93
2023-05-24T16:11:32.052Z,99558.11
2023-05-24T16:13:58.968Z,99560.61
2023-05-24T16:16:25.826Z,99563.27
2023-05-24T16:18:52.413Z,99560.08
2023-05-24T16:21:19.048Z,99563.37
2023-05-24T16:23:45.780Z,99563.88
2023-05-24T16:26:13.780Z,99570.33
2023-05-24T16:28:40.454Z,99570.63
2023-05-24T16:31:07.055Z,99570.41
2023-05-24T16:33:33.781Z,99567.81
2023-05-24T16:36:03.430Z,99567.60
2023-05-24T16:38:31.004Z,99567.78
2023-05-24T16:40:57.678Z,99568.92
2023-05-24T16:43:24.417Z,99574.63
2023-05-24T16:45:51.185Z,99578.07
2023-05-24T16:48:22.638Z,99579.98
2023-05-24T16:50:50.940Z,99583.59
2023-05-24T16:53:19.814Z,99585.63
2023-05-24T16:55:46.496Z,99587.04
2023-05-24T16:58:13.077Z,99586.20
2023-05-24T17:00:39.699Z,99587.25
2023-05-24T17:03:07.363Z,99589.59
2023-05-24T17:05:34.035Z,99594.86
2023-05-24T17:08:00.837Z,99595.41
2023-05-24T17:10:27.927Z,99597.52
2023-05-24T17:12:55.036Z,99597.10
2023-05-24T17:15:21.973Z,99598.25
2023-05-24T17:17:51.449Z,99598.48
2023-05-24T17:20:18.200Z,99601.66
2023-05-24T17:22:45.049Z,99607.60
2023-05-24T17:25:11.489Z,99610.45
2023-05-24T17:27:39.797Z,99612.04
2023-05-24T17:30:07.840Z,99614.11
2023-05-24T17:32:34.780Z,99614.87
2023-05-24T17:35:01.635Z,99619.56
2023-05-24T17:37:28.370Z,99622.70
2023-05-24T17:39:55.350Z,99626.05
2023-05-24T17:42:22.279Z,99625.94
2023-05-24T17:44:48.969Z,99625.59
2023-05-24T17:47:15.782Z,99624.17
2023-05-24T17:49:42.536Z,99628.95
2023-05-24T17:52:09.344Z,99631.98
2023-05-24T17:54:36.195Z,99636.92
2023-05-24T17:57:02.757Z,99642.55
2023-05-24T17:59:29.427Z,99648.04
2023-05-24T18:01:56.246Z,99650.20
2023-05-24T18:04:22.950Z,99653.98
2023-05-24T18:06:49.760Z,99663.30
2023-05-24T18:09:16.412Z,99664.34
2023-05-24T18:11:43.092Z,99665.25
2023-05-24T18:14:10.133Z,99669.59
2023-05-24T18:16:37.063Z,99675.30
2023-05-24T18:19:03.684Z,99676.28
2023-05-24T18:23:44.156Z,99682.26
2023-05-24T18:26:11.407Z,99686.21
2023-05-24T18:28:38.331Z,99685.30
2023-05-24T18:31:07.754Z,99688.90
2023-05-24T18:33:35.004Z,99689.38
2023-05-24T18:36:02.299Z,99689.44
2023-05-24T18:38:30.211Z,99691.61
2023-05-24T18:40:56.791Z,99693.12
2023-05-24T18:43:23.435Z,99693.13
2023-05-24T18:45:50.510Z,99692.50
2023-05-24T18:48:18.077Z,99695.48
2023-05-24T18:50:46.519Z,99696.08
2023-05-24T18:53:14.080Z,99695.94
2023-05-24T18:55:41.428Z,99699.86
2023-05-24T18:58:08.619Z,99696.61
2023-05-24T19:00:38.017Z,99698.93
2023-05-24T19:03:06.881Z,99698.55
2023-05-24T19:05:33.794Z,99694.48
2023-05-24T19:08:00.852Z,99693.79
2023-05-24T19:10:30.992Z,99691.87
2023-05-24T19:12:58.034Z,99691.41
2023-05-24T19:15:26.268Z,99692.54
2023-05-24T19:17:54.927Z,99695.05
2023-05-24T19:20:21.898Z,99700.88
2023-05-24T19:22:48.868Z,99701.92
2023-05-24T19:25:16.038Z,99700.52
2023-05-24T19:27:55.124Z,99704.42
2023-05-24T19:30:25.168Z,99706.95
2023-05-24T19:32:53.310Z,99711.43
2023-05-24T19:35:20.518Z,99711.28
2023-05-24T19:37:47.242Z,99709.77
2023-05-24T19:40:13.854Z,99706.02
2023-05-24T19:42:40.933Z,99708.86
2023-05-24T19:45:08.987Z,99711.39
2023-05-24T19:47:35.853Z,99712.80
2023-05-24T19:50:03.478Z,99711.20
2023-05-24T19:52:31.137Z,99712.77
2023-05-24T19:54:57.919Z,99711.19
2023-05-24T19:57:24.574Z,99714.04
2023-05-24T19:59:51.288Z,99711.27
2023-05-24T20:02:18.169Z,99712.38
2023-05-24T20:04:44.857Z,99714.67
2023-05-24T20:07:11.633Z,99716.45
2023-05-24T20:09:38.891Z,99720.17
2023-05-24T20:12:06.067Z,99718.25
2023-05-24T20:14:33.172Z,99720.66
2023-05-24T20:17:00.604Z,99716.48
2023-05-24T20:19:28.347Z,99713.55
2023-05-24T20:21:55.144Z,99713.05
2023-05-24T20:24:22.017Z,99711.46
2023-05-24T20:26:48.788Z,99714.71
2023-05-24T20:29:15.514Z,99715.08
2023-05-24T20:31:42.041Z,99711.57
2023-05-24T20:34:08.584Z,99716.16
2023-05-24T20:36:36.586Z,99714.75
2023-05-24T20:39:03.690Z,99706.02
2023-05-24T20:41:30.819Z,99708.00
2023-05-24T20:43:57.481Z,99708.29
2023-05-24T20:46:25.218Z,99712.75
2023-05-24T20:48:53.157Z,99715.27
2023-05-24T20:51:22.478Z,99716.06
2023-05-24T20:53:51.519Z,99712.25
2023-05-24T20:56:19.609Z,99712.36
2023-05-24T20:58:48.737Z,99708.15
2023-05-24T21:01:16.202Z,99704.36
2023-05-24T21:03:44.800Z,99703.25
2023-05-24T21:06:11.970Z,99703.23
2023-05-24T21:08:39.113Z,99700.33
2023-05-24T21:11:06.075Z,99698.14
2023-05-24T21:13:33.192Z,99696.52
2023-05-24T21:16:01.340Z,99695.36
2023-05-24T21:18:28.624Z,99693.70
2023-05-24T21:20:56.059Z,99691.48
2023-05-24T21:23:22.801Z,99692.39
2023-05-24T21:25:49.295Z,99691.08
2023-05-24T21:28:16.195Z,99690.32
2023-05-24T21:30:44.104Z,99691.48
2023-05-24T21:33:10.912Z,99687.77
2023-05-24T21:35:37.960Z,99689.19
2023-05-24T21:38:04.540Z,99687.07
2023-05-24T21:40:31.813Z,99686.27
2023-05-24T21:42:58.342Z,99688.27
2023-05-24T21:45:24.990Z,99689.23
2023-05-24T21:47:51.749Z,99691.80
2023-05-24T21:50:18.286Z,99692.45
2023-05-24T21:52:45.295Z,99695.59
2023-05-24T21:55:12.012Z,99699.65
2023-05-24T21:57:39.057Z,99699.23
2023-05-24T22:00:06.462Z,99697.91
2023-05-24T22:02:34.650Z,99700.84
2023-05-24T22:05:01.545Z,99697.83
2023-05-24T22:07:28.627Z,99703.33
2023-05-24T22:09:55.597Z,99702.20
2023-05-24T22:12:22.507Z,99707.30
2023-05-24T22:14:49.333Z,99707.58
2023-05-24T22:17:16.319Z,99703.73
2023-05-24T22:19:43.520Z,99705.79
2023-05-24T22:22:11.918Z,99706.95
2023-05-24T22:24:38.560Z,99702.77
2023-05-24T22:27:08.971Z,99705.09
2023-05-24T22:29:35.635Z,99707.60
2023-05-24T22:32:02.148Z,99705.41
2023-05-24T22:34:29.219Z,99708.67
2023-05-24T22:36:56.717Z,99707.75
2023-05-24T22:39:23.279Z,99708.79
2023-05-24T22:41:51.048Z,99709.39
2023-05-24T22:44:17.997Z,99710.13
2023-05-24T22:46:47.618Z,99706.71
2023-05-24T22:49:18.638Z,99704.06
2023-05-24T22:51:49.947Z,99706.63
2023-05-24T22:54:17.142Z,99706.63
2023-05-24T22:56:43.745Z,99705.89
2023-05-24T22:59:10.830Z,99704.75
2023-05-24T23:01:37.540Z,99707.92
2023-05-24T23:04:19.571Z,99709.48
2023-05-24T23:06:51.624Z,99710.07
2023-05-24T23:09:28.378Z,99712.52
2023-05-24T23:11:57.578Z,99715.25
2023-05-24T23:14:25.002Z,99713.91
2023-05-24T23:16:51.890Z,99714.86
2023-05-24T23:19:19.070Z,99716.89
2023-05-24T23:21:46.093Z,99712.34
2023-05-24T23:24:15.380Z,99717.54
2023-05-24T23:26:42.578Z,99717.29
2023-05-24T23:29:09.189Z,99717.52
2023-05-24T23:31:36.523Z,99720.57
2023-05-24T23:34:03.530Z,99719.75
2023-05-24T23:36:30.703Z,99726.55
2023-05-24T23:38:57.471Z,99722.46
2023-05-24T23:41:24.256Z,99724.56
2023-05-24T23:43:51.786Z,99725.34
2023-05-24T23:46:19.391Z,99725.64
2023-05-24T23:48:46.244Z,99721.49
2023-05-24T23:51:13.448Z,99724.52
2023-05-24T23:53:40.067Z,99721.31
2023-05-24T23:56:06.474Z,99722.27
2023-05-24T23:58:33.626Z,99723.46
